createdAt,value
2018-01-15T00:00:17.722Z,9.10
2018-01-15T00:02:44.076Z,10.00
2018-01-15T00:05:10.409Z,13.87
2018-01-15T00:07:36.703Z,10.57
2018-01-15T00:10:03.064Z,10.53
2018-01-15T00:12:29.364Z,12.20
2018-01-15T00:14:56.358Z,13.60
2018-01-15T00:17:22.668Z,11.53
2018-01-15T00:19:48.973Z,16.43
2018-01-15T00:22:15.976Z,9.90
2018-01-15T00:24:42.307Z,10.83
2018-01-15T00:27:08.560Z,11.70
2018-01-15T00:29:34.836Z,13.67
2018-01-15T00:32:01.184Z,12.63
2018-01-15T00:34:27.509Z,10.17
2018-01-15T00:36:53.766Z,12.97
2018-01-15T00:39:20.029Z,13.77
2018-01-15T00:41:46.343Z,16.47
2018-01-15T00:44:12.639Z,12.00
2018-01-15T00:46:38.988Z,12.60
2018-01-15T00:49:05.263Z,11.83
2018-01-15T00:51:32.295Z,11.67
2018-01-15T00:53:58.609Z,11.40
2018-01-15T00:56:24.891Z,10.80
2018-01-15T00:58:51.175Z,14.83
2018-01-15T01:01:18.219Z,12.40
2018-01-15T01:03:44.509Z,11.47
2018-01-15T01:06:10.799Z,14.37
2018-01-15T01:08:37.879Z,14.90
2018-01-15T01:11:04.142Z,11.30
2018-01-15T01:13:30.402Z,15.13
2018-01-15T01:15:57.432Z,11.23
2018-01-15T01:18:23.768Z,12.73
2018-01-15T01:20:50.068Z,9.70
2018-01-15T01:23:16.349Z,10.63
2018-01-15T01:25:43.436Z,12.30
2018-01-15T01:28:09.736Z,14.50
2018-01-15T01:30:36.754Z,13.30
2018-01-15T01:33:03.064Z,14.17
2018-01-15T01:35:29.469Z,14.67
2018-01-15T01:37:55.729Z,13.10
2018-01-15T01:40:22.815Z,12.30
2018-01-15T01:42:50.410Z,13.67
2018-01-15T01:45:16.681Z,16.00
2018-01-15T01:47:42.982Z,15.17
2018-01-15T01:50:09.275Z,13.90
2018-01-15T01:52:35.579Z,14.53
2018-01-15T01:55:01.879Z,14.27
2018-01-15T01:57:28.188Z,13.70
2018-01-15T01:59:58.212Z,12.57
2018-01-15T02:05:08.221Z,11.90
2018-01-15T02:10:12.076Z,13.93
2018-01-15T02:12:38.410Z,16.43
2018-01-15T02:15:05.399Z,13.53
2018-01-15T02:17:32.591Z,13.60
2018-01-15T02:19:59.695Z,13.90
2018-01-15T02:22:26.809Z,15.03
2018-01-15T02:24:53.791Z,19.37
2018-01-15T02:27:20.170Z,12.70
2018-01-15T02:29:47.263Z,13.80
2018-01-15T02:32:13.558Z,15.20
2018-01-15T02:34:40.608Z,12.43
2018-01-15T02:37:07.579Z,11.83
2018-01-15T02:39:33.922Z,14.60
2018-01-15T02:42:00.151Z,15.20
2018-01-15T02:44:26.461Z,14.20
2018-01-15T02:46:52.699Z,16.10
2018-01-15T02:49:19.073Z,11.80
2018-01-15T02:51:45.310Z,13.63
2018-01-15T02:54:11.637Z,15.47
2018-01-15T02:56:37.874Z,11.73
2018-01-15T02:59:04.164Z,14.27
2018-01-15T03:01:30.417Z,13.60
2018-01-15T03:03:56.728Z,14.47
2018-01-15T03:06:23.003Z,14.70
2018-01-15T03:08:50.049Z,14.87
2018-01-15T03:11:16.327Z,15.50
2018-01-15T03:13:42.617Z,14.43
2018-01-15T03:16:09.695Z,16.30
2018-01-15T03:18:35.957Z,12.47
2018-01-15T03:21:02.289Z,14.87
2018-01-15T03:23:28.541Z,14.30
2018-01-15T03:25:54.818Z,16.30
2018-01-15T03:28:21.158Z,15.70
2018-01-15T03:30:47.376Z,15.57
2018-01-15T03:33:13.667Z,12.53
2018-01-15T03:35:39.937Z,14.23
2018-01-15T03:38:06.248Z,14.03
2018-01-15T03:40:32.534Z,15.17
2018-01-15T03:42:58.872Z,14.10
2018-01-15T03:45:25.184Z,12.30
2018-01-15T03:47:51.476Z,14.20
2018-01-15T03:50:17.778Z,14.70
2018-01-15T03:52:44.076Z,14.73
2018-01-15T03:55:10.540Z,18.63
2018-01-15T03:57:36.766Z,15.40
2018-01-15T04:00:04.557Z,15.30
2018-01-15T04:02:32.394Z,15.50
2018-01-15T04:04:58.647Z,13.97
2018-01-15T04:07:25.683Z,14.73
2018-01-15T04:09:52.111Z,14.47
2018-01-15T04:12:18.458Z,14.60
2018-01-15T04:14:45.489Z,13.80
2018-01-15T04:17:11.717Z,16.00
2018-01-15T04:19:38.013Z,17.33
2018-01-15T04:22:04.379Z,16.27
2018-01-15T04:24:30.603Z,13.27
2018-01-15T04:26:56.847Z,15.47
2018-01-15T04:29:23.132Z,17.37
2018-01-15T04:31:49.743Z,17.33
2018-01-15T04:34:16.178Z,14.23
2018-01-15T04:36:42.427Z,14.40
2018-01-15T04:39:08.730Z,13.70
2018-01-15T04:41:35.674Z,16.03
2018-01-15T04:44:02.865Z,17.93
2018-01-15T04:46:29.132Z,18.07
2018-01-15T04:48:55.362Z,17.90
2018-01-15T04:51:21.750Z,16.03
2018-01-15T04:53:48.011Z,14.50
2018-01-15T04:56:14.264Z,16.07
2018-01-15T04:58:41.258Z,17.07
2018-01-15T05:01:07.514Z,17.30
2018-01-15T05:03:33.766Z,17.03
2018-01-15T05:06:00.799Z,13.77
2018-01-15T05:08:27.047Z,18.00
2018-01-15T05:10:54.063Z,15.90
2018-01-15T05:13:20.313Z,16.30
2018-01-15T05:15:46.578Z,20.53
2018-01-15T05:18:12.899Z,17.60
2018-01-15T05:20:39.147Z,20.57
2018-01-15T05:23:05.415Z,20.90
2018-01-15T05:25:31.697Z,17.27
2018-01-15T05:27:59.001Z,16.60
2018-01-15T05:30:25.249Z,19.87
2018-01-15T05:32:52.288Z,22.10
2018-01-15T05:35:18.555Z,22.57
2018-01-15T05:37:44.929Z,20.27
2018-01-15T05:40:11.219Z,22.03
2018-01-15T05:42:37.550Z,23.77
2018-01-15T05:45:03.848Z,24.00
2018-01-15T05:47:30.122Z,23.77
2018-01-15T05:49:56.446Z,21.47
2018-01-15T05:52:22.724Z,20.47
2018-01-15T05:54:48.973Z,20.90
2018-01-15T05:57:16.102Z,18.50
2018-01-15T05:59:42.324Z,21.20
2018-01-15T06:02:08.572Z,18.80
2018-01-15T06:04:34.810Z,23.13
2018-01-15T06:07:01.833Z,21.90
2018-01-15T06:09:28.171Z,23.87
2018-01-15T06:11:54.480Z,26.33
2018-01-15T06:14:20.710Z,21.20
2018-01-15T06:16:46.976Z,26.43
2018-01-15T06:19:14.007Z,19.57
2018-01-15T06:21:40.321Z,18.37
2018-01-15T06:24:06.587Z,20.10
2018-01-15T06:26:33.611Z,22.37
2018-01-15T06:28:59.955Z,18.30
2018-01-15T06:31:26.287Z,23.60
2018-01-15T06:33:52.604Z,21.20
2018-01-15T06:36:18.864Z,25.60
2018-01-15T06:38:45.904Z,23.57
2018-01-15T06:41:12.923Z,20.80
2018-01-15T06:43:39.217Z,23.23
2018-01-15T06:46:05.490Z,22.97
2018-01-15T06:48:31.804Z,21.90
2018-01-15T06:50:58.129Z,19.03
2018-01-15T06:53:24.408Z,21.60
2018-01-15T06:55:51.399Z,24.07
2018-01-15T06:58:17.651Z,22.40
2018-01-15T07:00:43.961Z,23.83
2018-01-15T07:03:10.289Z,28.20
2018-01-15T07:05:36.532Z,20.87
2018-01-15T07:08:02.785Z,23.87
2018-01-15T07:10:29.039Z,23.33
2018-01-15T07:12:55.852Z,19.90
2018-01-15T07:15:22.119Z,22.80
2018-01-15T07:17:48.335Z,20.57
2018-01-15T07:20:15.352Z,22.60
2018-01-15T07:22:41.584Z,19.67
2018-01-15T07:25:07.859Z,23.47
2018-01-15T07:27:34.112Z,19.53
2018-01-15T07:30:00.404Z,22.73
2018-01-15T07:32:26.756Z,20.33
2018-01-15T07:34:53.015Z,19.53
2018-01-15T07:37:19.292Z,23.23
2018-01-15T07:39:46.286Z,27.03
2018-01-15T07:42:12.527Z,18.63
2018-01-15T07:44:38.772Z,21.60
2018-01-15T07:47:05.010Z,21.00
2018-01-15T07:49:31.368Z,29.20
2018-01-15T07:51:58.389Z,21.57
2018-01-15T07:54:24.989Z,18.93
2018-01-15T07:56:51.215Z,21.63
2018-01-15T07:59:17.509Z,17.93
2018-01-15T08:01:44.492Z,19.37
2018-01-15T08:04:10.763Z,20.00
2018-01-15T08:06:37.013Z,24.50
2018-01-15T08:09:03.984Z,18.90
2018-01-15T08:11:30.262Z,17.03
2018-01-15T08:13:56.524Z,20.63
2018-01-15T08:16:23.516Z,17.77
2018-01-15T08:18:49.818Z,18.20
2018-01-15T08:21:16.118Z,19.93
2018-01-15T08:23:43.347Z,20.13
2018-01-15T08:26:10.553Z,24.77
2018-01-15T08:28:36.817Z,18.20
2018-01-15T08:31:03.040Z,22.33
2018-01-15T08:33:29.358Z,18.20
2018-01-15T08:35:56.425Z,20.03
2018-01-15T08:38:22.675Z,17.63
2018-01-15T08:40:48.935Z,17.70
2018-01-15T08:43:15.170Z,17.80
2018-01-15T08:45:41.449Z,16.83
2018-01-15T08:48:07.691Z,19.70
2018-01-15T08:50:33.975Z,17.30
2018-01-15T08:53:00.215Z,22.97
2018-01-15T08:55:26.526Z,21.97
2018-01-15T08:57:52.831Z,29.23
2018-01-15T09:00:19.855Z,18.93
2018-01-15T09:02:46.108Z,20.27
2018-01-15T09:05:13.118Z,22.10
2018-01-15T09:07:39.342Z,18.33
2018-01-15T09:10:05.674Z,18.17
2018-01-15T09:12:31.969Z,15.13
2018-01-15T09:14:58.235Z,21.20
2018-01-15T09:17:24.510Z,16.60
2018-01-15T09:19:51.500Z,16.37
2018-01-15T09:22:17.784Z,18.77
2018-01-15T09:24:44.738Z,19.77
2018-01-15T09:27:11.754Z,15.90
2018-01-15T09:29:38.938Z,12.33
2018-01-15T09:32:05.943Z,14.33
2018-01-15T09:34:32.267Z,18.90
2018-01-15T09:36:58.599Z,13.27
2018-01-15T09:39:24.859Z,12.17
2018-01-15T09:41:51.871Z,16.03
2018-01-15T09:44:18.205Z,12.93
2018-01-15T09:46:44.468Z,12.20
2018-01-15T09:49:11.526Z,17.20
2018-01-15T09:51:38.577Z,14.13
2018-01-15T09:54:05.587Z,16.53
2018-01-15T09:56:31.819Z,10.93
2018-01-15T09:58:58.095Z,15.37
2018-01-15T10:01:24.331Z,13.30
2018-01-15T10:03:51.612Z,11.90
2018-01-15T10:06:17.810Z,16.63
2018-01-15T10:08:44.121Z,12.97
2018-01-15T10:11:11.115Z,13.50
2018-01-15T10:13:37.376Z,15.10
2018-01-15T10:16:03.692Z,17.10
2018-01-15T10:18:29.938Z,16.97
2018-01-15T10:20:56.967Z,15.90
2018-01-15T10:23:23.196Z,13.93
2018-01-15T10:25:49.472Z,12.73
2018-01-15T10:28:15.684Z,15.63
2018-01-15T10:30:42.663Z,15.77
2018-01-15T10:33:08.960Z,13.43
2018-01-15T10:35:35.232Z,13.50
2018-01-15T10:38:01.504Z,13.47
2018-01-15T10:40:27.736Z,14.27
2018-01-15T10:42:54.009Z,12.47
2018-01-15T10:45:20.305Z,11.53
2018-01-15T10:47:47.312Z,11.73
2018-01-15T10:50:13.571Z,13.17
2018-01-15T10:52:39.834Z,12.60
2018-01-15T10:55:06.061Z,15.50
2018-01-15T10:57:32.378Z,11.73
2018-01-15T10:59:59.371Z,26.90
2018-01-15T11:02:25.635Z,11.57
2018-01-15T11:04:51.905Z,15.70
2018-01-15T11:07:18.211Z,11.40
2018-01-15T11:09:45.203Z,11.00
2018-01-15T11:12:11.409Z,10.57
2018-01-15T11:14:37.672Z,9.53
2018-01-15T11:17:04.014Z,12.13
2018-01-15T11:19:30.298Z,12.67
2018-01-15T11:21:56.589Z,11.00
2018-01-15T11:24:22.837Z,10.97
2018-01-15T11:26:49.866Z,13.00
2018-01-15T11:29:16.162Z,10.60
2018-01-15T11:31:42.419Z,10.97
2018-01-15T11:34:08.687Z,11.90
2018-01-15T11:36:35.720Z,12.20
2018-01-15T11:41:34.829Z,11.63
2018-01-15T11:44:01.071Z,15.27
2018-01-15T11:46:28.106Z,9.60
2018-01-15T11:48:54.331Z,12.83
2018-01-15T11:51:21.303Z,10.87
2018-01-15T11:53:47.580Z,12.77
2018-01-15T11:56:13.833Z,11.83
2018-01-15T11:58:40.824Z,12.07
2018-01-15T12:01:07.183Z,11.57
2018-01-15T12:03:33.450Z,10.47
2018-01-15T12:05:59.676Z,9.97
2018-01-15T12:13:30.736Z,13.17
2018-01-15T12:15:57.003Z,11.07
2018-01-15T12:18:24.036Z,12.30
2018-01-15T12:20:58.108Z,10.37
2018-01-15T12:23:24.366Z,9.53
2018-01-15T12:28:23.346Z,10.50
2018-01-15T12:30:49.670Z,11.13
2018-01-15T12:33:15.942Z,12.73
2018-01-15T12:35:43.001Z,11.17
2018-01-15T12:40:42.114Z,12.53
2018-01-15T12:43:09.142Z,12.63
2018-01-15T12:45:35.396Z,13.97
2018-01-15T12:48:02.445Z,13.23
2018-01-15T12:50:29.409Z,13.80
2018-01-15T12:52:55.706Z,12.90
2018-01-15T13:02:58.972Z,12.23
2018-01-15T13:08:35.759Z,16.20
2018-01-15T13:11:02.788Z,20.60
2018-01-15T13:26:09.851Z,16.20
2018-01-15T13:38:44.348Z,13.40
2018-01-15T13:48:47.092Z,15.10
2018-01-15T13:51:14.181Z,15.10
2018-01-15T13:56:19.537Z,16.07
2018-01-15T14:24:07.432Z,16.37
2018-01-15T14:26:33.696Z,15.73
2018-01-15T14:29:00.169Z,18.50
2018-01-15T14:41:34.368Z,16.47
2018-01-15T14:46:33.343Z,16.17
2018-01-15T14:48:59.601Z,21.17
2018-01-15T14:51:26.624Z,20.30
2018-01-15T14:58:57.739Z,17.50
2018-01-15T15:01:24.268Z,18.97
2018-01-15T15:06:23.510Z,19.40
2018-01-15T15:08:49.940Z,20.17
2018-01-15T15:13:48.633Z,21.03
2018-01-15T15:18:47.843Z,17.43
2018-01-15T15:21:15.081Z,24.50
2018-01-15T15:23:42.119Z,20.40
2018-01-15T15:26:08.517Z,22.87
2018-01-15T15:28:34.813Z,23.00
2018-01-15T15:31:01.102Z,22.67
2018-01-15T15:33:27.454Z,24.07
2018-01-15T15:38:27.300Z,22.93
2018-01-15T15:48:30.343Z,27.57
2018-01-15T15:53:29.399Z,25.03
2018-01-15T15:58:27.900Z,26.23
2018-01-15T16:03:26.226Z,25.27
2018-01-15T16:08:24.519Z,24.50
2018-01-15T16:10:50.881Z,24.70
2018-01-15T16:15:49.316Z,28.53
2018-01-15T16:18:15.619Z,32.67
2018-01-15T16:35:55.640Z,29.73
2018-01-15T16:38:22.698Z,25.90
2018-01-15T16:40:50.636Z,21.30
2018-01-15T16:43:29.907Z,26.00
2018-01-15T16:48:29.546Z,23.47
2018-01-15T16:53:29.495Z,19.13
2018-01-15T17:03:44.758Z,26.77
2018-01-15T17:06:12.294Z,24.40
2018-01-15T17:21:37.449Z,25.63
2018-01-15T17:29:08.712Z,26.27
2018-01-15T17:34:08.491Z,25.47
2018-01-15T17:36:35.380Z,26.47
2018-01-15T17:46:49.196Z,27.23
2018-01-15T17:59:09.257Z,23.20
2018-01-15T18:06:41.872Z,22.80
2018-01-15T18:09:09.205Z,24.93
2018-01-15T18:11:37.562Z,26.33
2018-01-15T18:16:37.531Z,25.03
2018-01-15T18:19:05.999Z,24.80
2018-01-15T18:42:00.440Z,23.90
2018-01-15T18:47:15.609Z,29.97
2018-01-15T18:49:42.717Z,24.30
2018-01-15T18:54:44.227Z,27.60
2018-01-15T18:57:16.555Z,25.93
2018-01-15T19:04:56.332Z,27.40
2018-01-15T19:09:55.548Z,25.23
2018-01-15T19:20:00.467Z,22.40
2018-01-15T19:22:27.639Z,23.90
2018-01-15T19:24:55.397Z,24.03
2018-01-15T19:29:56.598Z,25.67
2018-01-15T19:32:23.388Z,24.53
2018-01-15T19:40:04.929Z,25.80
2018-01-15T19:42:33.880Z,24.83
2018-01-15T19:50:29.044Z,22.50
2018-01-15T19:53:04.158Z,24.43
2018-01-15T19:55:37.377Z,20.83
2018-01-15T20:11:22.431Z,26.90
2018-01-15T20:13:49.791Z,25.73
2018-01-15T20:18:50.475Z,21.93
2018-01-15T20:21:17.988Z,23.43
2018-01-15T20:26:28.200Z,22.57
2018-01-15T20:31:31.556Z,20.83
2018-01-15T20:33:59.216Z,19.87
2018-01-15T20:36:26.869Z,19.00
2018-01-15T20:38:54.767Z,18.47
2018-01-15T20:41:21.820Z,21.40
2018-01-15T20:54:03.169Z,24.67
2018-01-15T20:56:31.029Z,26.03
2018-01-15T20:58:58.613Z,24.60
2018-01-15T21:04:07.925Z,21.40
2018-01-15T21:11:41.270Z,21.50
2018-01-15T21:14:09.236Z,21.37
2018-01-15T21:26:48.716Z,22.53
2018-01-15T21:29:16.814Z,23.70
2018-01-15T21:34:19.818Z,17.80
2018-01-15T21:36:47.316Z,17.80
2018-01-15T21:39:14.760Z,21.07
2018-01-15T21:46:47.761Z,19.80
2018-01-15T21:49:15.375Z,21.07
2018-01-15T21:51:44.413Z,19.90
2018-01-15T21:56:47.208Z,21.83
2018-01-15T22:04:20.272Z,22.70
2018-01-15T22:06:47.459Z,15.90
2018-01-15T22:09:16.414Z,18.90
2018-01-15T22:27:05.097Z,18.10
2018-01-15T22:29:32.874Z,21.10
2018-01-15T22:34:35.392Z,19.23
2018-01-15T22:37:03.252Z,19.43
2018-01-15T22:49:52.647Z,18.80
2018-01-15T22:57:25.883Z,22.90
2018-01-15T22:59:54.600Z,15.07
2018-01-15T23:02:21.536Z,17.03
2018-01-15T23:09:55.384Z,14.90
2018-01-15T23:20:02.622Z,15.93
2018-01-15T23:25:01.743Z,13.73
2018-01-15T23:27:32.756Z,14.13
2018-01-15T23:29:59.952Z,15.37
2018-01-15T23:34:58.142Z,15.50
2018-01-15T23:39:56.414Z,17.13
2018-01-15T23:47:28.204Z,13.70
2018-01-15T23:49:57.639Z,13.60
2018-01-15T23:52:36.030Z,16.63
2018-01-15T23:57:36.163Z,15.20
